createdAt,value
2023-01-28T00:00:12.176Z,8.85
2023-01-28T00:02:57.338Z,11.43
2023-01-28T00:05:42.643Z,13.75
2023-01-28T00:08:27.861Z,16.30
2023-01-28T00:11:13.663Z,12.90
2023-01-28T00:13:58.546Z,11.82
2023-01-28T00:16:43.712Z,13.77
2023-01-28T00:19:28.975Z,14.32
2023-01-28T00:22:14.048Z,14.85
2023-01-28T00:24:59.288Z,12.85
2023-01-28T00:27:45.209Z,10.15
2023-01-28T00:30:30.488Z,13.13
2023-01-28T00:33:15.563Z,14.85
2023-01-28T00:36:01.842Z,7.93
2023-01-28T00:38:59.526Z,12.90
2023-01-28T00:41:44.604Z,16.00
2023-01-28T00:44:29.562Z,12.55
2023-01-28T00:47:14.434Z,18.08
2023-01-28T00:49:59.395Z,7.90
2023-01-28T00:52:44.632Z,15.52
2023-01-28T00:55:29.861Z,7.90
2023-01-28T00:58:15.243Z,12.05
2023-01-28T01:01:11.393Z,16.60
2023-01-28T01:04:05.664Z,18.63
2023-01-28T01:06:50.867Z,10.15
2023-01-28T01:09:35.773Z,10.70
2023-01-28T01:12:20.771Z,11.35
2023-01-28T01:15:10.256Z,10.32
2023-01-28T01:17:55.232Z,5.72
2023-01-28T01:20:45.499Z,9.00
2023-01-28T01:23:31.463Z,14.60
2023-01-28T01:26:16.573Z,15.20
2023-01-28T01:29:01.827Z,10.55
2023-01-28T01:31:46.851Z,8.48
2023-01-28T01:34:31.677Z,11.57
2023-01-28T01:37:16.745Z,11.35
2023-01-28T01:40:03.171Z,14.23
2023-01-28T01:42:48.443Z,9.93
2023-01-28T01:45:35.119Z,13.77
2023-01-28T01:48:25.533Z,16.40
2023-01-28T01:51:14.611Z,8.55
2023-01-28T01:54:00.267Z,10.85
2023-01-28T01:56:49.044Z,12.32
2023-01-28T01:59:36.119Z,15.68
2023-01-28T02:02:21.889Z,13.35
2023-01-28T02:05:13.547Z,13.55
2023-01-28T02:08:19.048Z,12.13
2023-01-28T02:11:08.659Z,13.35
2023-01-28T02:13:57.330Z,13.07
2023-01-28T02:16:42.783Z,11.32
2023-01-28T02:19:33.906Z,12.25
2023-01-28T02:22:37.646Z,17.52
2023-01-28T02:26:00.206Z,10.15
2023-01-28T02:28:59.034Z,12.85
2023-01-28T02:31:57.652Z,14.43
2023-01-28T02:34:47.996Z,15.93
2023-01-28T02:37:53.476Z,13.25
2023-01-28T02:41:02.021Z,14.02
2023-01-28T02:43:47.666Z,12.35
2023-01-28T02:46:55.247Z,16.02
2023-01-28T02:49:49.963Z,17.00
2023-01-28T02:52:56.356Z,16.30
2023-01-28T02:55:56.838Z,19.30
2023-01-28T02:59:30.943Z,16.63
2023-01-28T03:02:28.620Z,15.85
2023-01-28T03:05:35.244Z,16.45
2023-01-28T03:08:39.160Z,17.15
2023-01-28T03:11:44.601Z,18.85
2023-01-28T03:14:51.066Z,14.02
2023-01-28T03:18:14.072Z,19.17
2023-01-28T03:21:29.470Z,15.13
2023-01-28T03:24:42.278Z,19.00
2023-01-28T03:28:15.180Z,13.70
2023-01-28T03:31:25.633Z,16.50
2023-01-28T03:34:30.176Z,17.55
2023-01-28T03:37:15.448Z,17.77
2023-01-28T03:40:06.277Z,16.83
2023-01-28T03:42:52.374Z,15.10
2023-01-28T03:45:39.078Z,15.30
2023-01-28T03:48:25.905Z,16.90
2023-01-28T03:51:11.151Z,11.98
2023-01-28T03:53:56.459Z,20.50
2023-01-28T03:56:41.763Z,20.58
2023-01-28T03:59:26.975Z,18.55
2023-01-28T04:02:12.905Z,16.27
2023-01-28T04:04:58.964Z,20.15
2023-01-28T04:07:44.294Z,20.33
2023-01-28T04:10:29.527Z,16.08
2023-01-28T04:13:14.477Z,16.92
2023-01-28T04:16:03.480Z,18.77
2023-01-28T04:18:49.019Z,15.82
2023-01-28T04:21:34.699Z,22.45
2023-01-28T04:24:20.574Z,16.40
2023-01-28T04:27:05.431Z,15.93
2023-01-28T04:29:51.169Z,15.07
2023-01-28T04:32:36.235Z,14.60
2023-01-28T04:35:21.107Z,14.98
2023-01-28T04:38:06.556Z,19.27
2023-01-28T04:40:52.816Z,17.58
2023-01-28T04:43:37.823Z,16.67
2023-01-28T04:46:23.389Z,16.42
2023-01-28T04:49:08.660Z,16.75
2023-01-28T04:51:53.697Z,12.25
2023-01-28T04:54:38.973Z,15.20
2023-01-28T04:57:24.080Z,15.48
2023-01-28T05:00:10.043Z,14.38
2023-01-28T05:02:54.961Z,12.57
2023-01-28T05:05:40.042Z,9.70
2023-01-28T05:08:25.279Z,15.88
2023-01-28T05:11:10.216Z,14.57
2023-01-28T05:13:55.331Z,17.58
2023-01-28T05:16:40.255Z,14.85
2023-01-28T05:19:25.419Z,14.02
2023-01-28T05:22:10.356Z,14.75
2023-01-28T05:24:55.776Z,13.52
2023-01-28T05:27:41.006Z,18.52
2023-01-28T05:30:26.439Z,15.20
2023-01-28T05:33:11.862Z,22.08
2023-01-28T05:35:57.007Z,8.82
2023-01-28T05:38:41.994Z,15.52
2023-01-28T05:41:27.006Z,11.48
2023-01-28T05:44:12.515Z,10.10
2023-01-28T05:46:57.753Z,12.25
2023-01-28T05:49:42.616Z,12.02
2023-01-28T05:52:27.591Z,14.68
2023-01-28T05:55:12.702Z,12.15
2023-01-28T05:57:57.995Z,14.25
2023-01-28T06:00:43.385Z,9.80
2023-01-28T06:03:28.695Z,11.63
2023-01-28T06:06:13.673Z,12.43
2023-01-28T06:08:59.039Z,11.40
2023-01-28T06:11:45.574Z,14.70
2023-01-28T06:14:30.391Z,15.52
2023-01-28T06:17:15.836Z,10.70
2023-01-28T06:20:01.039Z,11.13
2023-01-28T06:22:46.143Z,18.27
2023-01-28T06:25:31.433Z,11.80
2023-01-28T06:28:16.293Z,16.98
2023-01-28T06:31:01.656Z,12.02
2023-01-28T06:33:47.294Z,12.85
2023-01-28T06:36:33.096Z,15.35
2023-01-28T06:39:18.044Z,11.27
2023-01-28T06:42:02.928Z,10.73
2023-01-28T06:44:48.063Z,9.05
2023-01-28T06:47:32.972Z,13.30
2023-01-28T06:50:18.497Z,13.48
2023-01-28T06:53:03.410Z,11.95
2023-01-28T06:55:48.807Z,10.57
2023-01-28T06:58:34.646Z,11.00
2023-01-28T07:01:19.528Z,14.32
2023-01-28T07:04:04.799Z,16.65
2023-01-28T07:06:50.057Z,11.70
2023-01-28T07:09:34.970Z,7.95
2023-01-28T07:12:20.282Z,16.08
2023-01-28T07:15:06.081Z,12.05
2023-01-28T07:17:51.427Z,12.20
2023-01-28T07:20:36.628Z,8.73
2023-01-28T07:23:22.857Z,12.82
2023-01-28T07:26:07.868Z,10.65
2023-01-28T07:28:53.120Z,12.02
2023-01-28T07:31:38.316Z,15.63
2023-01-28T07:34:23.459Z,11.43
2023-01-28T07:37:09.874Z,12.48
2023-01-28T07:39:54.818Z,11.50
2023-01-28T07:42:40.302Z,9.93
2023-01-28T07:45:25.527Z,11.20
2023-01-28T07:48:12.811Z,11.77
2023-01-28T07:51:01.561Z,12.38
2023-01-28T07:53:46.873Z,11.33
2023-01-28T07:56:31.865Z,11.85
2023-01-28T07:59:17.074Z,14.02
2023-01-28T08:02:01.962Z,11.13
2023-01-28T08:04:47.540Z,9.57
2023-01-28T08:07:32.734Z,10.48
2023-01-28T08:10:18.619Z,11.95
2023-01-28T08:13:04.137Z,9.07
2023-01-28T08:15:49.268Z,8.07
2023-01-28T08:18:34.456Z,8.32
2023-01-28T08:21:19.357Z,11.32
2023-01-28T08:24:05.076Z,10.95
2023-01-28T08:26:50.069Z,13.33
2023-01-28T08:29:36.508Z,8.43
2023-01-28T08:32:21.577Z,9.80
2023-01-28T08:35:07.804Z,12.90
2023-01-28T08:37:53.910Z,10.57
2023-01-28T08:40:39.332Z,13.18
2023-01-28T08:43:24.454Z,13.30
2023-01-28T08:46:09.573Z,8.52
2023-01-28T08:48:54.641Z,9.30
2023-01-28T08:51:39.664Z,13.18
2023-01-28T08:54:24.809Z,9.38
2023-01-28T08:57:09.798Z,12.50
2023-01-28T08:59:54.902Z,15.73
2023-01-28T09:02:39.850Z,6.95
2023-01-28T09:05:25.078Z,12.00
2023-01-28T09:08:13.324Z,13.55
2023-01-28T09:10:58.976Z,9.85
2023-01-28T09:13:44.208Z,11.75
2023-01-28T09:16:29.128Z,8.98
2023-01-28T09:19:15.768Z,8.77
2023-01-28T09:22:03.081Z,6.60
2023-01-28T09:24:48.454Z,8.73
2023-01-28T09:27:33.952Z,9.75
2023-01-28T09:30:19.201Z,11.80
2023-01-28T09:33:04.577Z,7.65
2023-01-28T09:35:49.344Z,11.18
2023-01-28T09:38:37.122Z,8.32
2023-01-28T09:41:26.405Z,7.68
2023-01-28T09:44:40.610Z,8.70
2023-01-28T09:47:37.775Z,11.38
2023-01-28T09:50:35.004Z,14.55
2023-01-28T09:53:27.555Z,12.27
2023-01-28T09:56:20.775Z,12.32
2023-01-28T09:59:19.413Z,10.23
2023-01-28T10:02:23.081Z,9.95
2023-01-28T10:05:22.749Z,7.43
2023-01-28T10:08:43.301Z,11.55
2023-01-28T10:11:28.391Z,9.18
2023-01-28T10:14:29.031Z,9.75
2023-01-28T10:17:36.790Z,10.95
2023-01-28T10:20:28.945Z,9.63
2023-01-28T10:23:41.378Z,11.07
2023-01-28T10:26:32.914Z,8.25
2023-01-28T10:29:21.706Z,12.48
2023-01-28T10:32:16.369Z,9.70
2023-01-28T10:35:04.599Z,12.27
2023-01-28T10:37:51.185Z,9.88
2023-01-28T10:40:36.870Z,10.05
2023-01-28T10:43:27.088Z,10.05
2023-01-28T10:46:34.168Z,8.30
2023-01-28T10:49:26.458Z,13.82
2023-01-28T10:52:13.479Z,10.43
2023-01-28T10:55:03.915Z,10.77
2023-01-28T10:57:49.268Z,9.50
2023-01-28T11:00:37.697Z,12.38
2023-01-28T11:03:27.320Z,9.13
2023-01-28T11:06:27.121Z,6.72
2023-01-28T11:09:24.269Z,5.55
2023-01-28T11:12:21.318Z,4.72
2023-01-28T11:15:07.048Z,12.38
2023-01-28T11:18:10.191Z,8.15
2023-01-28T11:21:03.323Z,5.93
2023-01-28T11:24:01.456Z,7.45
2023-01-28T11:26:50.795Z,8.75
2023-01-28T11:29:39.813Z,5.13
2023-01-28T11:32:26.616Z,3.63
2023-01-28T11:35:25.352Z,3.83
2023-01-28T11:38:22.731Z,4.35
2023-01-28T11:41:15.726Z,4.20
2023-01-28T11:44:14.487Z,7.10
2023-01-28T11:47:18.151Z,3.53
2023-01-28T11:50:30.216Z,10.57
2023-01-28T11:53:42.682Z,6.82
2023-01-28T11:56:42.540Z,9.00
2023-01-28T11:59:35.931Z,5.28
2023-01-28T12:02:45.695Z,5.40
2023-01-28T12:05:36.660Z,7.47
2023-01-28T12:08:30.411Z,5.65
2023-01-28T12:12:14.163Z,6.82
2023-01-28T12:15:32.591Z,4.32
2023-01-28T12:18:32.807Z,7.72
2023-01-28T12:21:46.679Z,8.30
2023-01-28T12:24:53.547Z,5.25
2023-01-28T12:28:08.447Z,4.90
2023-01-28T12:31:13.819Z,4.57
2023-01-28T12:34:12.187Z,6.03
2023-01-28T12:37:06.462Z,8.32
2023-01-28T12:40:19.805Z,7.80
2023-01-28T12:43:29.079Z,7.40
2023-01-28T12:46:26.252Z,6.35
2023-01-28T12:49:29.956Z,7.18
2023-01-28T12:52:35.366Z,6.18
2023-01-28T12:55:34.340Z,6.88
2023-01-28T12:58:25.185Z,5.50
2023-01-28T13:01:15.602Z,5.53
2023-01-28T13:04:19.833Z,10.13
2023-01-28T13:07:34.242Z,9.32
2023-01-28T13:10:32.598Z,9.23
2023-01-28T13:13:34.919Z,11.25
2023-01-28T13:16:28.587Z,11.55
2023-01-28T13:19:36.736Z,8.88
2023-01-28T13:22:32.262Z,13.25
2023-01-28T13:25:29.359Z,5.80
2023-01-28T13:28:28.484Z,5.68
2023-01-28T13:31:19.044Z,10.33
2023-01-28T13:34:06.624Z,9.30
2023-01-28T13:36:53.466Z,7.40
2023-01-28T13:39:38.659Z,6.60
2023-01-28T13:42:29.699Z,6.45
2023-01-28T13:45:17.912Z,4.93
2023-01-28T13:48:22.785Z,10.35
2023-01-28T13:51:18.962Z,9.18
2023-01-28T13:54:12.659Z,6.35
2023-01-28T13:57:30.646Z,7.72
2023-01-28T14:00:40.568Z,23.05
2023-01-28T14:03:44.382Z,18.30
2023-01-28T14:07:07.831Z,16.17
2023-01-28T14:10:11.395Z,7.13
2023-01-28T14:13:20.610Z,9.40
2023-01-28T14:16:08.701Z,3.63
2023-01-28T14:18:56.406Z,6.35
2023-01-28T14:21:41.561Z,6.68
2023-01-28T14:24:27.262Z,5.47
2023-01-28T14:27:22.445Z,7.65
2023-01-28T14:30:31.262Z,6.83
2023-01-28T14:33:17.634Z,10.97
2023-01-28T14:36:02.889Z,7.75
2023-01-28T14:38:48.695Z,9.80
2023-01-28T14:41:33.737Z,7.15
2023-01-28T14:44:32.399Z,7.05
2023-01-28T14:47:45.191Z,5.65
2023-01-28T14:50:55.109Z,11.43
2023-01-28T14:56:43.278Z,29.80
2023-01-28T14:59:37.159Z,12.00
2023-01-28T15:02:27.007Z,7.93
2023-01-28T15:08:02.372Z,8.90
2023-01-28T15:10:49.379Z,13.10
2023-01-28T15:13:42.607Z,12.38
2023-01-28T15:16:31.373Z,12.98
2023-01-28T15:19:18.187Z,11.15
2023-01-28T15:22:06.256Z,11.55
2023-01-28T15:24:51.559Z,13.80
2023-01-28T15:27:36.551Z,11.18
2023-01-28T15:30:26.971Z,10.48
2023-01-28T15:33:15.333Z,9.15
2023-01-28T15:36:00.670Z,11.70
2023-01-28T15:38:45.514Z,10.82
2023-01-28T15:41:38.108Z,8.23
2023-01-28T15:44:43.432Z,9.25
2023-01-28T15:47:33.420Z,13.60
2023-01-28T15:50:21.767Z,15.85
2023-01-28T15:53:11.308Z,7.57
2023-01-28T15:58:50.170Z,6.28
2023-01-28T16:01:35.529Z,7.85
2023-01-28T16:04:29.059Z,6.25
2023-01-28T16:07:14.116Z,6.18
2023-01-28T16:10:02.431Z,10.25
2023-01-28T16:12:52.946Z,7.10
2023-01-28T16:15:39.337Z,8.77
2023-01-28T16:18:44.013Z,7.93
2023-01-28T16:21:37.180Z,11.90
2023-01-28T16:24:27.779Z,11.02
2023-01-28T16:27:24.988Z,11.65
2023-01-28T16:30:11.699Z,12.02
2023-01-28T16:32:56.871Z,10.60
2023-01-28T16:36:03.536Z,10.70
2023-01-28T16:38:47.211Z,9.00
2023-01-28T16:41:44.147Z,10.50
2023-01-28T16:44:29.176Z,10.80
2023-01-28T16:47:14.005Z,11.80
2023-01-28T16:49:59.047Z,10.75
2023-01-28T16:52:46.156Z,12.85
2023-01-28T16:55:31.112Z,8.18
2023-01-28T16:58:19.239Z,7.00
2023-01-28T17:01:04.215Z,8.95
2023-01-28T17:03:49.249Z,6.68
2023-01-28T17:06:34.384Z,6.30
2023-01-28T17:09:19.539Z,10.38
2023-01-28T17:12:05.003Z,11.18
2023-01-28T17:14:49.765Z,9.57
2023-01-28T17:17:34.803Z,8.70
2023-01-28T17:20:19.810Z,13.48
2023-01-28T17:23:07.021Z,11.43
2023-01-28T17:25:51.967Z,18.73
2023-01-28T17:28:37.159Z,11.98
2023-01-28T17:31:23.052Z,9.88
2023-01-28T17:34:11.318Z,19.95
2023-01-28T17:36:56.365Z,13.18
2023-01-28T17:39:41.519Z,14.32
2023-01-28T17:42:27.514Z,13.90
2023-01-28T17:45:14.303Z,15.35
2023-01-28T17:47:59.725Z,16.65
2023-01-28T17:50:44.925Z,12.95
2023-01-28T17:53:30.002Z,13.48
2023-01-28T17:56:23.987Z,15.10
2023-01-28T17:59:09.798Z,13.27
2023-01-28T18:01:55.337Z,13.93
2023-01-28T18:04:41.937Z,13.90
2023-01-28T18:07:27.124Z,15.70
2023-01-28T18:10:15.500Z,13.70
2023-01-28T18:13:00.439Z,11.02
2023-01-28T18:15:45.602Z,15.77
2023-01-28T18:18:30.530Z,13.20
2023-01-28T18:21:23.199Z,12.30
2023-01-28T18:24:10.180Z,17.73
2023-01-28T18:27:00.014Z,11.93
2023-01-28T18:32:30.399Z,10.60
2023-01-28T18:35:16.271Z,11.20
2023-01-28T18:38:02.655Z,11.98
2023-01-28T18:40:47.839Z,16.23
2023-01-28T18:43:35.384Z,10.82
2023-01-28T18:46:20.936Z,12.70
2023-01-28T18:49:05.809Z,11.82
2023-01-28T18:51:51.023Z,12.15
2023-01-28T18:54:36.753Z,11.35
2023-01-28T18:57:21.717Z,14.32
2023-01-28T19:00:07.591Z,14.77
2023-01-28T19:02:52.796Z,19.35
2023-01-28T19:05:39.451Z,15.57
2023-01-28T19:08:24.368Z,16.30
2023-01-28T19:11:09.769Z,17.80
2023-01-28T19:13:55.129Z,18.50
2023-01-28T19:16:40.481Z,19.05
2023-01-28T19:19:25.949Z,17.58
2023-01-28T19:22:10.895Z,19.02
2023-01-28T19:24:56.403Z,20.48
2023-01-28T19:27:41.361Z,33.83
2023-01-28T19:30:26.777Z,26.33
2023-01-28T19:33:12.598Z,23.90
2023-01-28T19:35:59.406Z,24.65
2023-01-28T19:38:44.988Z,22.15
2023-01-28T19:41:30.358Z,22.00
2023-01-28T19:44:15.322Z,16.15
2023-01-28T19:47:02.251Z,15.52
2023-01-28T19:49:47.447Z,16.85
2023-01-28T19:52:32.801Z,19.73
2023-01-28T19:55:18.219Z,17.50
2023-01-28T19:58:03.829Z,20.40
2023-01-28T20:00:49.097Z,19.70
2023-01-28T20:03:39.040Z,17.65
2023-01-28T20:06:26.391Z,18.17
2023-01-28T20:09:17.191Z,21.03
2023-01-28T20:12:02.274Z,16.73
2023-01-28T20:14:47.456Z,20.55
2023-01-28T20:17:32.887Z,19.75
2023-01-28T20:20:18.339Z,20.83
2023-01-28T20:23:05.668Z,20.40
2023-01-28T20:25:55.029Z,22.73
2023-01-28T20:28:40.071Z,165.07
2023-01-28T20:31:25.273Z,93.53
2023-01-28T20:34:15.461Z,62.50
2023-01-28T20:39:46.127Z,20.33
2023-01-28T20:42:31.311Z,19.30
2023-01-28T20:45:16.890Z,20.90
2023-01-28T20:48:01.973Z,18.45
2023-01-28T20:50:46.876Z,21.00
2023-01-28T20:53:32.500Z,25.05
2023-01-28T20:56:20.107Z,17.95
2023-01-28T20:59:05.981Z,17.73
2023-01-28T21:01:50.966Z,20.60
2023-01-28T21:04:36.117Z,21.15
2023-01-28T21:07:20.963Z,24.17
2023-01-28T21:10:06.475Z,18.38
2023-01-28T21:12:51.443Z,17.63
2023-01-28T21:15:37.074Z,24.00
2023-01-28T21:18:23.094Z,18.02
2023-01-28T21:21:14.828Z,20.77
2023-01-28T21:24:00.464Z,20.17
2023-01-28T21:26:45.525Z,21.75
2023-01-28T21:29:30.429Z,24.17
2023-01-28T21:32:16.412Z,17.77
2023-01-28T21:35:01.416Z,20.77
2023-01-28T21:37:46.972Z,20.80
2023-01-28T21:40:33.851Z,20.77
2023-01-28T21:43:19.056Z,23.40
2023-01-28T21:46:05.046Z,21.88
2023-01-28T21:48:54.105Z,19.13
2023-01-28T21:51:39.764Z,18.85
2023-01-28T21:54:25.554Z,23.75
2023-01-28T21:57:10.587Z,19.75
2023-01-28T21:59:55.606Z,22.38
2023-01-28T22:02:40.694Z,18.92
2023-01-28T22:05:26.158Z,17.90
2023-01-28T22:08:11.360Z,22.02
2023-01-28T22:10:56.756Z,21.60
2023-01-28T22:13:42.643Z,20.65
2023-01-28T22:16:27.467Z,18.92
2023-01-28T22:19:13.887Z,20.08
2023-01-28T22:21:59.212Z,20.23
2023-01-28T22:24:44.651Z,20.25
2023-01-28T22:27:29.847Z,22.92
2023-01-28T22:30:15.338Z,21.45
2023-01-28T22:33:00.773Z,19.70
2023-01-28T22:35:45.810Z,20.85
2023-01-28T22:38:30.710Z,23.23
2023-01-28T22:41:24.966Z,26.00
2023-01-28T22:44:10.003Z,21.50
2023-01-28T22:46:55.156Z,21.75
2023-01-28T22:49:40.580Z,23.35
2023-01-28T22:52:25.713Z,21.08
2023-01-28T22:55:10.802Z,20.70
2023-01-28T22:57:56.158Z,19.35
2023-01-28T23:00:41.448Z,18.15
2023-01-28T23:03:26.955Z,21.05
2023-01-28T23:06:13.456Z,22.60
2023-01-28T23:08:58.349Z,21.52
2023-01-28T23:11:43.767Z,22.08
2023-01-28T23:14:47.373Z,26.15
2023-01-28T23:17:51.230Z,22.35
2023-01-28T23:20:58.124Z,25.63
2023-01-28T23:24:01.986Z,26.48
2023-01-28T23:26:59.892Z,21.83
2023-01-28T23:29:45.171Z,23.65
2023-01-28T23:32:30.288Z,22.00
2023-01-28T23:35:16.461Z,32.47
2023-01-28T23:38:01.481Z,20.80
2023-01-28T23:40:46.297Z,27.10
2023-01-28T23:43:31.308Z,26.90
2023-01-28T23:46:16.874Z,31.67
2023-01-28T23:49:02.017Z,25.27
2023-01-28T23:51:47.328Z,26.42
2023-01-28T23:54:32.891Z,25.17
2023-01-28T23:57:18.797Z,24.20
